AVA625 SKAR-SKCG
Flight info
| Callsign | AVA625 |
|---|---|
| Flight time | 1h 5m |
| Altitude | 23000 |
| Route | PEI1F PEI W3 RNG/N0438F320 UP778 BUTAL/N0381F230 W6 AKPAM AKPAM2A |
| Aircraft | A319/M-SDE3FGHIRWY/LB1 |
Departure
| Time | 2026-04-29 19:35 |
|---|---|
| Airport | El Eden Airport (SKAR) |
Arrival
| Time | 2026-04-29 20:40 |
|---|---|
| Airport | Rafael Nuñez International Airport (SKCG) |
| Time | Latitude | Longitude | Altitude | Speed | Heading |
|---|---|---|---|---|---|
| 2026-04-29 18:35 | 4.45330 | -75.76750 | 4003 ft | 0 kts | 284° |
| 2026-04-29 19:25 | 4.45328 | -75.76744 | 4004 ft | 2 kts | 284° |
| 2026-04-29 19:25 | 4.45325 | -75.76732 | 4004 ft | 0 kts | 284° |
| 2026-04-29 19:26 | 4.45323 | -75.76719 | 4004 ft | 2 kts | 265° |
| 2026-04-29 19:26 | 4.45326 | -75.76704 | 4005 ft | 2 kts | 245° |
| 2026-04-29 19:26 | 4.45335 | -75.76691 | 4005 ft | 2 kts | 223° |
| 2026-04-29 19:26 | 4.45348 | -75.76681 | 4005 ft | 2 kts | 202° |
| 2026-04-29 19:27 | 4.45356 | -75.76679 | 4005 ft | 1 kts | 190° |
| 2026-04-29 19:27 | 4.45359 | -75.76678 | 4005 ft | 0 kts | 193° |
| 2026-04-29 19:29 | 4.45353 | -75.76680 | 4005 ft | 1 kts | 193° |
| 2026-04-29 19:29 | 4.45339 | -75.76683 | 4005 ft | 2 kts | 193° |
| 2026-04-29 19:29 | 4.45313 | -75.76689 | 4005 ft | 4 kts | 192° |
| 2026-04-29 19:29 | 4.45277 | -75.76698 | 4005 ft | 5 kts | 192° |
| 2026-04-29 19:30 | 4.45235 | -75.76688 | 4005 ft | 6 kts | 141° |
| 2026-04-29 19:30 | 4.45199 | -75.76652 | 4005 ft | 7 kts | 141° |
| 2026-04-29 19:30 | 4.45143 | -75.76643 | 4005 ft | 9 kts | 189° |
| 2026-04-29 19:30 | 4.45070 | -75.76660 | 4004 ft | 11 kts | 194° |
| 2026-04-29 19:31 | 4.44977 | -75.76685 | 4002 ft | 14 kts | 195° |
| 2026-04-29 19:31 | 4.44868 | -75.76714 | 4000 ft | 17 kts | 195° |
| 2026-04-29 19:31 | 4.44739 | -75.76748 | 3995 ft | 20 kts | 194° |
| 2026-04-29 19:31 | 4.44592 | -75.76781 | 3990 ft | 22 kts | 191° |
| 2026-04-29 19:32 | 4.44427 | -75.76809 | 3986 ft | 23 kts | 191° |
| 2026-04-29 19:32 | 4.44263 | -75.76847 | 3980 ft | 17 kts | 195° |
| 2026-04-29 19:32 | 4.44150 | -75.76877 | 3973 ft | 18 kts | 195° |
| 2026-04-29 19:32 | 4.44068 | -75.76896 | 3969 ft | 9 kts | 191° |
| 2026-04-29 19:33 | 4.44015 | -75.76894 | 3966 ft | 5 kts | 190° |
| 2026-04-29 19:33 | 4.44021 | -75.76902 | 3966 ft | 1 kts | 347° |
| 2026-04-29 19:33 | 4.44026 | -75.76903 | 3967 ft | 0 kts | 347° |
| 2026-04-29 19:33 | 4.44030 | -75.76904 | 3967 ft | 4 kts | 352° |
| 2026-04-29 19:34 | 4.44055 | -75.76904 | 3968 ft | 0 kts | 8° |
| 2026-04-29 19:34 | 4.44215 | -75.76869 | 3976 ft | 54 kts | 14° |
| 2026-04-29 19:34 | 4.44792 | -75.76723 | 3998 ft | 115 kts | 14° |
| 2026-04-29 19:35 | 4.45761 | -75.76492 | 4008 ft | 167 kts | 14° |
| 2026-04-29 19:35 | 4.46950 | -75.76200 | 4390 ft | 180 kts | 14° |
| 2026-04-29 19:35 | 4.48126 | -75.75903 | 5045 ft | 174 kts | 14° |
| 2026-04-29 19:35 | 4.49314 | -75.75588 | 5596 ft | 181 kts | 16° |
| 2026-04-29 19:36 | 4.50635 | -75.75144 | 5659 ft | 220 kts | 20° |
| 2026-04-29 19:36 | 4.52231 | -75.74644 | 5717 ft | 258 kts | 7° |
| 2026-04-29 19:36 | 4.54147 | -75.74774 | 5666 ft | 300 kts | 348° |
| 2026-04-29 19:36 | 4.56319 | -75.75436 | 5585 ft | 342 kts | 338° |
| 2026-04-29 19:37 | 4.58521 | -75.76381 | 6491 ft | 348 kts | 336° |
| 2026-04-29 19:37 | 4.59972 | -75.76999 | 7333 ft | 342 kts | 338° |
| 2026-04-29 19:37 | 4.62820 | -75.78140 | 8817 ft | 325 kts | 340° |
| 2026-04-29 19:37 | 4.64892 | -75.78918 | 9812 ft | 315 kts | 341° |
| 2026-04-29 19:38 | 4.66923 | -75.79652 | 10816 ft | 304 kts | 341° |
| 2026-04-29 19:38 | 4.68888 | -75.80352 | 11695 ft | 298 kts | 341° |
| 2026-04-29 19:38 | 4.70828 | -75.81035 | 12337 ft | 300 kts | 342° |
| 2026-04-29 19:38 | 4.72821 | -75.81736 | 12934 ft | 304 kts | 342° |
| 2026-04-29 19:39 | 4.74830 | -75.82439 | 13545 ft | 307 kts | 342° |
| 2026-04-29 19:39 | 4.76876 | -75.83106 | 14129 ft | 309 kts | 350° |
| 2026-04-29 19:39 | 4.79086 | -75.83205 | 14728 ft | 309 kts | 10° |
| 2026-04-29 19:39 | 4.81214 | -75.82640 | 15344 ft | 309 kts | 20° |
| 2026-04-29 19:40 | 4.83333 | -75.81889 | 15943 ft | 312 kts | 21° |
| 2026-04-29 19:40 | 4.85440 | -75.81132 | 16529 ft | 315 kts | 21° |
| 2026-04-29 19:40 | 4.87582 | -75.80367 | 17137 ft | 317 kts | 21° |
| 2026-04-29 19:40 | 4.89755 | -75.79597 | 17708 ft | 320 kts | 21° |
| 2026-04-29 19:41 | 4.91957 | -75.78824 | 18256 ft | 323 kts | 21° |
| 2026-04-29 19:41 | 4.94142 | -75.78058 | 18776 ft | 326 kts | 21° |
| 2026-04-29 19:41 | 4.96367 | -75.77280 | 19276 ft | 330 kts | 21° |
| 2026-04-29 19:41 | 4.98530 | -75.76524 | 19747 ft | 333 kts | 21° |
| 2026-04-29 19:42 | 5.00796 | -75.75731 | 20212 ft | 337 kts | 21° |
| 2026-04-29 19:42 | 5.01512 | -75.75481 | 20360 ft | 338 kts | 21° |
| 2026-04-29 19:42 | 5.05265 | -75.74165 | 21130 ft | 344 kts | 21° |
| 2026-04-29 19:42 | 5.07551 | -75.73367 | 21583 ft | 347 kts | 21° |
| 2026-04-29 19:43 | 5.09851 | -75.72563 | 22051 ft | 350 kts | 21° |
| 2026-04-29 19:43 | 5.12192 | -75.71745 | 22517 ft | 352 kts | 21° |
| 2026-04-29 19:43 | 5.14564 | -75.70918 | 22951 ft | 355 kts | 21° |
| 2026-04-29 19:43 | 5.16988 | -75.70074 | 23113 ft | 356 kts | 21° |
| 2026-04-29 19:44 | 5.19345 | -75.69255 | 23118 ft | 355 kts | 21° |
| 2026-04-29 19:44 | 5.21695 | -75.68436 | 23119 ft | 355 kts | 21° |
| 2026-04-29 19:44 | 5.24086 | -75.67604 | 23121 ft | 355 kts | 21° |
| 2026-04-29 19:44 | 5.26421 | -75.66790 | 23121 ft | 355 kts | 21° |
| 2026-04-29 19:45 | 5.28783 | -75.65966 | 23124 ft | 355 kts | 21° |
| 2026-04-29 19:45 | 5.31125 | -75.65147 | 23134 ft | 355 kts | 21° |
| 2026-04-29 19:45 | 5.33466 | -75.64329 | 23141 ft | 355 kts | 21° |
| 2026-04-29 19:45 | 5.35832 | -75.63506 | 23146 ft | 355 kts | 21° |
| 2026-04-29 19:46 | 5.38202 | -75.62679 | 23150 ft | 355 kts | 20° |
| 2026-04-29 19:46 | 5.40539 | -75.61865 | 23155 ft | 355 kts | 21° |
| 2026-04-29 19:46 | 5.42927 | -75.61038 | 23161 ft | 356 kts | 21° |
| 2026-04-29 19:46 | 5.45317 | -75.60210 | 23164 ft | 356 kts | 21° |
| 2026-04-29 19:47 | 5.47651 | -75.59398 | 23167 ft | 355 kts | 21° |
| 2026-04-29 19:47 | 5.50010 | -75.58578 | 23171 ft | 355 kts | 20° |
| 2026-04-29 19:47 | 5.52371 | -75.57759 | 23173 ft | 355 kts | 21° |
| 2026-04-29 19:47 | 5.54728 | -75.56939 | 23174 ft | 355 kts | 21° |
| 2026-04-29 19:48 | 5.57076 | -75.56121 | 23175 ft | 355 kts | 20° |
| 2026-04-29 19:48 | 5.58625 | -75.55582 | 23175 ft | 355 kts | 20° |
| 2026-04-29 19:48 | 5.61757 | -75.54493 | 23170 ft | 355 kts | 21° |
| 2026-04-29 19:48 | 5.64095 | -75.53678 | 23163 ft | 355 kts | 20° |
| 2026-04-29 19:49 | 5.66466 | -75.52852 | 23162 ft | 355 kts | 21° |
| 2026-04-29 19:49 | 5.68795 | -75.52042 | 23162 ft | 355 kts | 20° |
| 2026-04-29 19:49 | 5.71176 | -75.51214 | 23162 ft | 355 kts | 21° |
| 2026-04-29 19:49 | 5.73515 | -75.50399 | 23166 ft | 355 kts | 20° |
| 2026-04-29 19:50 | 5.75866 | -75.49581 | 23172 ft | 356 kts | 21° |
| 2026-04-29 19:50 | 5.78223 | -75.48761 | 23176 ft | 356 kts | 20° |
| 2026-04-29 19:50 | 5.80582 | -75.47938 | 23178 ft | 356 kts | 21° |
| 2026-04-29 19:50 | 5.82950 | -75.47113 | 23177 ft | 355 kts | 20° |
| 2026-04-29 19:51 | 5.85380 | -75.46266 | 23176 ft | 355 kts | 20° |
| 2026-04-29 19:51 | 5.87807 | -75.45419 | 23177 ft | 355 kts | 21° |
| 2026-04-29 19:51 | 5.90223 | -75.44578 | 23179 ft | 355 kts | 20° |
| 2026-04-29 19:51 | 5.92661 | -75.43729 | 23190 ft | 355 kts | 21° |
| 2026-04-29 19:52 | 5.95003 | -75.42911 | 23199 ft | 355 kts | 20° |
| 2026-04-29 19:52 | 5.97444 | -75.42210 | 23209 ft | 357 kts | 12° |
| 2026-04-29 19:52 | 6.00038 | -75.41885 | 23225 ft | 359 kts | 3° |
| 2026-04-29 19:52 | 6.02285 | -75.41872 | 23228 ft | 359 kts | 360° |
| 2026-04-29 19:53 | 6.02656 | -75.41878 | 23230 ft | 359 kts | 360° |
| 2026-04-29 19:53 | 6.03415 | -75.41894 | 23233 ft | 359 kts | 360° |
| 2026-04-29 19:53 | 6.06003 | -75.41963 | 23238 ft | 359 kts | 360° |
| 2026-04-29 19:53 | 6.08609 | -75.42030 | 23241 ft | 358 kts | 359° |
| 2026-04-29 19:54 | 6.13821 | -75.42158 | 23240 ft | 359 kts | 0° |
| 2026-04-29 19:54 | 6.16409 | -75.42214 | 23239 ft | 359 kts | 360° |
| 2026-04-29 19:54 | 6.18994 | -75.42268 | 23240 ft | 358 kts | 0° |
| 2026-04-29 19:55 | 6.21571 | -75.42323 | 23241 ft | 358 kts | 0° |
| 2026-04-29 19:55 | 6.24189 | -75.42380 | 23241 ft | 359 kts | 0° |
| 2026-04-29 19:55 | 6.26806 | -75.42434 | 23239 ft | 359 kts | 0° |
| 2026-04-29 19:55 | 6.29392 | -75.42487 | 23239 ft | 359 kts | 360° |
| 2026-04-29 19:56 | 6.31976 | -75.42539 | 23237 ft | 358 kts | 360° |
| 2026-04-29 19:56 | 6.34602 | -75.42594 | 23236 ft | 358 kts | 360° |
| 2026-04-29 19:56 | 6.37177 | -75.42648 | 23235 ft | 358 kts | 360° |
| 2026-04-29 19:56 | 6.39767 | -75.42704 | 23224 ft | 358 kts | 0° |
| 2026-04-29 19:57 | 6.42347 | -75.42757 | 23222 ft | 358 kts | 0° |
| 2026-04-29 19:57 | 6.44101 | -75.42793 | 23216 ft | 358 kts | 360° |
| 2026-04-29 19:57 | 6.47541 | -75.42866 | 23201 ft | 358 kts | 0° |
| 2026-04-29 19:57 | 6.50121 | -75.42918 | 23189 ft | 358 kts | 360° |
| 2026-04-29 19:58 | 6.52718 | -75.42972 | 23180 ft | 358 kts | 360° |
| 2026-04-29 19:58 | 6.55345 | -75.43027 | 23175 ft | 358 kts | 360° |
| 2026-04-29 19:58 | 6.57911 | -75.43081 | 23178 ft | 358 kts | 360° |
| 2026-04-29 19:58 | 6.60527 | -75.43134 | 23190 ft | 358 kts | 0° |
| 2026-04-29 19:59 | 6.63096 | -75.43189 | 23200 ft | 358 kts | 360° |
| 2026-04-29 19:59 | 6.65715 | -75.43243 | 23209 ft | 358 kts | 360° |
| 2026-04-29 19:59 | 6.68309 | -75.43298 | 23215 ft | 358 kts | 0° |
| 2026-04-29 19:59 | 6.70905 | -75.43350 | 23219 ft | 359 kts | 360° |
| 2026-04-29 20:00 | 6.73506 | -75.43403 | 23225 ft | 358 kts | 360° |
| 2026-04-29 20:00 | 6.76089 | -75.43456 | 23232 ft | 358 kts | 360° |
| 2026-04-29 20:00 | 6.78702 | -75.43511 | 23229 ft | 358 kts | 360° |
| 2026-04-29 20:00 | 6.81319 | -75.43566 | 23228 ft | 358 kts | 360° |
| 2026-04-29 20:01 | 6.83934 | -75.43621 | 23227 ft | 358 kts | 0° |
| 2026-04-29 20:01 | 6.86525 | -75.43674 | 23222 ft | 358 kts | 0° |
| 2026-04-29 20:01 | 6.89126 | -75.43728 | 23220 ft | 357 kts | 0° |
| 2026-04-29 20:01 | 6.91770 | -75.43784 | 23215 ft | 357 kts | 0° |
| 2026-04-29 20:02 | 6.94332 | -75.43836 | 23202 ft | 357 kts | 0° |
| 2026-04-29 20:02 | 6.96935 | -75.43891 | 23197 ft | 357 kts | 0° |
| 2026-04-29 20:02 | 6.99465 | -75.43943 | 23192 ft | 357 kts | 360° |
| 2026-04-29 20:02 | 7.01163 | -75.43977 | 23184 ft | 357 kts | 0° |
| 2026-04-29 20:03 | 7.04517 | -75.44047 | 23160 ft | 357 kts | 360° |
| 2026-04-29 20:03 | 7.07049 | -75.44100 | 23140 ft | 357 kts | 0° |
| 2026-04-29 20:03 | 7.09625 | -75.44154 | 23125 ft | 357 kts | 0° |
| 2026-04-29 20:03 | 7.12231 | -75.44206 | 23103 ft | 356 kts | 360° |
| 2026-04-29 20:04 | 7.14786 | -75.44261 | 23082 ft | 357 kts | 360° |
| 2026-04-29 20:04 | 7.17371 | -75.44315 | 23078 ft | 357 kts | 360° |
| 2026-04-29 20:04 | 7.19965 | -75.44371 | 23057 ft | 357 kts | 360° |
| 2026-04-29 20:04 | 7.22516 | -75.44422 | 23034 ft | 356 kts | 360° |
| 2026-04-29 20:05 | 7.25084 | -75.44476 | 23008 ft | 356 kts | 360° |
| 2026-04-29 20:05 | 7.27632 | -75.44529 | 22988 ft | 355 kts | 359° |
| 2026-04-29 20:05 | 7.30121 | -75.44579 | 22971 ft | 355 kts | 359° |
| 2026-04-29 20:05 | 7.32661 | -75.44634 | 22955 ft | 355 kts | 0° |
| 2026-04-29 20:06 | 7.35194 | -75.44686 | 22948 ft | 355 kts | 360° |
| 2026-04-29 20:06 | 7.37741 | -75.44740 | 22934 ft | 355 kts | 0° |
| 2026-04-29 20:06 | 7.40208 | -75.44791 | 22930 ft | 355 kts | 360° |
| 2026-04-29 20:06 | 7.42691 | -75.44840 | 22916 ft | 354 kts | 360° |
| 2026-04-29 20:07 | 7.45154 | -75.44892 | 22906 ft | 354 kts | 359° |
| 2026-04-29 20:07 | 7.47640 | -75.44943 | 22895 ft | 354 kts | 360° |
| 2026-04-29 20:07 | 7.50120 | -75.44996 | 22881 ft | 354 kts | 360° |
| 2026-04-29 20:07 | 7.52681 | -75.45049 | 22869 ft | 353 kts | 360° |
| 2026-04-29 20:08 | 7.55230 | -75.45101 | 22865 ft | 353 kts | 359° |
| 2026-04-29 20:08 | 7.56957 | -75.45136 | 22859 ft | 353 kts | 359° |
| 2026-04-29 20:08 | 7.60419 | -75.45210 | 22851 ft | 353 kts | 360° |
| 2026-04-29 20:08 | 7.62969 | -75.45262 | 22846 ft | 353 kts | 359° |
| 2026-04-29 20:09 | 7.65537 | -75.45315 | 22834 ft | 353 kts | 359° |
| 2026-04-29 20:09 | 7.68107 | -75.45369 | 22819 ft | 353 kts | 359° |
| 2026-04-29 20:09 | 7.70689 | -75.45423 | 22810 ft | 353 kts | 359° |
| 2026-04-29 20:09 | 7.73248 | -75.45476 | 22809 ft | 352 kts | 359° |
| 2026-04-29 20:10 | 7.75831 | -75.45528 | 22797 ft | 353 kts | 359° |
| 2026-04-29 20:10 | 7.78380 | -75.45583 | 22797 ft | 352 kts | 359° |
| 2026-04-29 20:10 | 7.80956 | -75.45637 | 22798 ft | 353 kts | 359° |
| 2026-04-29 20:10 | 7.83538 | -75.45690 | 22796 ft | 354 kts | 359° |
| 2026-04-29 20:11 | 7.86127 | -75.45744 | 22795 ft | 355 kts | 359° |
| 2026-04-29 20:11 | 7.88718 | -75.45798 | 22789 ft | 355 kts | 359° |
| 2026-04-29 20:11 | 7.91309 | -75.45853 | 22784 ft | 354 kts | 359° |
| 2026-04-29 20:11 | 7.93876 | -75.45905 | 22781 ft | 354 kts | 359° |
| 2026-04-29 20:12 | 7.96439 | -75.45959 | 22776 ft | 352 kts | 359° |
| 2026-04-29 20:12 | 7.99009 | -75.46013 | 22773 ft | 352 kts | 359° |
| 2026-04-29 20:12 | 8.01559 | -75.46066 | 22770 ft | 353 kts | 359° |
| 2026-04-29 20:12 | 8.04158 | -75.46121 | 22767 ft | 352 kts | 359° |
| 2026-04-29 20:13 | 8.06697 | -75.46175 | 22766 ft | 352 kts | 359° |
| 2026-04-29 20:13 | 8.08431 | -75.46210 | 22767 ft | 353 kts | 359° |
| 2026-04-29 20:13 | 8.11870 | -75.46282 | 22765 ft | 354 kts | 359° |
| 2026-04-29 20:13 | 8.14431 | -75.46335 | 22765 ft | 356 kts | 359° |
| 2026-04-29 20:14 | 8.17011 | -75.46388 | 22766 ft | 356 kts | 359° |
| 2026-04-29 20:14 | 8.19603 | -75.46441 | 22764 ft | 355 kts | 359° |
| 2026-04-29 20:14 | 8.22194 | -75.46496 | 22762 ft | 355 kts | 359° |
| 2026-04-29 20:14 | 8.24803 | -75.46548 | 22765 ft | 353 kts | 359° |
| 2026-04-29 20:15 | 8.27371 | -75.46601 | 22765 ft | 352 kts | 359° |
| 2026-04-29 20:15 | 8.29835 | -75.46652 | 22761 ft | 353 kts | 359° |
| 2026-04-29 20:15 | 8.32273 | -75.46704 | 22760 ft | 352 kts | 359° |
| 2026-04-29 20:15 | 8.34735 | -75.46757 | 22765 ft | 353 kts | 359° |
| 2026-04-29 20:16 | 8.37204 | -75.46808 | 22765 ft | 353 kts | 359° |
| 2026-04-29 20:16 | 8.39668 | -75.46859 | 22764 ft | 355 kts | 359° |
| 2026-04-29 20:16 | 8.42165 | -75.46908 | 22766 ft | 357 kts | 359° |
| 2026-04-29 20:16 | 8.44669 | -75.46957 | 22767 ft | 359 kts | 359° |
| 2026-04-29 20:17 | 8.47178 | -75.47009 | 22598 ft | 358 kts | 358° |
| 2026-04-29 20:17 | 8.49670 | -75.47062 | 22410 ft | 355 kts | 358° |
| 2026-04-29 20:17 | 8.52129 | -75.47112 | 22261 ft | 351 kts | 358° |
| 2026-04-29 20:17 | 8.54585 | -75.47165 | 22110 ft | 349 kts | 358° |
| 2026-04-29 20:18 | 8.56994 | -75.47215 | 21939 ft | 347 kts | 358° |
| 2026-04-29 20:18 | 8.59439 | -75.47268 | 21701 ft | 347 kts | 358° |
| 2026-04-29 20:18 | 8.61835 | -75.47318 | 21469 ft | 347 kts | 358° |
| 2026-04-29 20:18 | 8.64269 | -75.47368 | 21233 ft | 346 kts | 358° |
| 2026-04-29 20:19 | 8.66677 | -75.47419 | 21000 ft | 346 kts | 358° |
| 2026-04-29 20:19 | 8.69080 | -75.47470 | 20768 ft | 345 kts | 358° |
| 2026-04-29 20:19 | 8.71476 | -75.47521 | 20534 ft | 343 kts | 358° |
| 2026-04-29 20:19 | 8.73878 | -75.47571 | 20298 ft | 343 kts | 358° |
| 2026-04-29 20:20 | 8.76367 | -75.47623 | 20057 ft | 342 kts | 359° |
| 2026-04-29 20:20 | 8.78846 | -75.47675 | 19812 ft | 340 kts | 359° |
| 2026-04-29 20:20 | 8.81314 | -75.47727 | 19567 ft | 340 kts | 359° |
| 2026-04-29 20:20 | 8.83789 | -75.47779 | 19320 ft | 338 kts | 359° |
| 2026-04-29 20:21 | 8.86230 | -75.47829 | 19075 ft | 337 kts | 359° |
| 2026-04-29 20:21 | 8.88678 | -75.47880 | 18832 ft | 335 kts | 359° |
| 2026-04-29 20:21 | 8.91090 | -75.47930 | 18587 ft | 334 kts | 359° |
| 2026-04-29 20:21 | 8.93525 | -75.47980 | 18339 ft | 333 kts | 359° |
| 2026-04-29 20:22 | 8.95912 | -75.48031 | 18097 ft | 332 kts | 359° |
| 2026-04-29 20:22 | 8.98306 | -75.48080 | 17855 ft | 330 kts | 359° |
| 2026-04-29 20:22 | 9.00721 | -75.48131 | 17607 ft | 328 kts | 359° |
| 2026-04-29 20:22 | 9.03080 | -75.48181 | 17369 ft | 327 kts | 359° |
| 2026-04-29 20:23 | 9.05443 | -75.48229 | 17131 ft | 326 kts | 360° |
| 2026-04-29 20:23 | 9.07811 | -75.48280 | 16894 ft | 326 kts | 360° |
| 2026-04-29 20:23 | 9.10160 | -75.48328 | 16653 ft | 325 kts | 359° |
| 2026-04-29 20:23 | 9.12511 | -75.48377 | 16398 ft | 324 kts | 360° |
| 2026-04-29 20:24 | 9.14844 | -75.48425 | 16140 ft | 323 kts | 360° |
| 2026-04-29 20:24 | 9.17169 | -75.48474 | 15888 ft | 322 kts | 360° |
| 2026-04-29 20:24 | 9.19454 | -75.48521 | 15647 ft | 321 kts | 360° |
| 2026-04-29 20:24 | 9.21693 | -75.48568 | 15406 ft | 320 kts | 360° |
| 2026-04-29 20:25 | 9.23902 | -75.48614 | 15191 ft | 320 kts | 0° |
| 2026-04-29 20:25 | 9.26156 | -75.48661 | 14943 ft | 319 kts | 360° |
| 2026-04-29 20:25 | 9.28355 | -75.48706 | 14678 ft | 318 kts | 360° |
| 2026-04-29 20:25 | 9.30674 | -75.48755 | 14445 ft | 318 kts | 0° |
| 2026-04-29 20:26 | 9.32965 | -75.48802 | 14226 ft | 317 kts | 0° |
| 2026-04-29 20:26 | 9.35240 | -75.48849 | 13974 ft | 315 kts | 360° |
| 2026-04-29 20:26 | 9.37517 | -75.48898 | 13747 ft | 314 kts | 360° |
| 2026-04-29 20:26 | 9.39791 | -75.48946 | 13516 ft | 312 kts | 0° |
| 2026-04-29 20:27 | 9.42020 | -75.48992 | 13259 ft | 312 kts | 360° |
| 2026-04-29 20:27 | 9.43531 | -75.49022 | 13090 ft | 311 kts | 0° |
| 2026-04-29 20:27 | 9.46528 | -75.49085 | 12775 ft | 309 kts | 0° |
| 2026-04-29 20:27 | 9.48780 | -75.49133 | 12542 ft | 309 kts | 0° |
| 2026-04-29 20:28 | 9.51012 | -75.49195 | 12313 ft | 308 kts | 359° |
| 2026-04-29 20:28 | 9.53276 | -75.49279 | 12063 ft | 306 kts | 359° |
| 2026-04-29 20:28 | 9.55503 | -75.49367 | 11819 ft | 305 kts | 359° |
| 2026-04-29 20:28 | 9.57729 | -75.49453 | 11584 ft | 304 kts | 359° |
| 2026-04-29 20:29 | 9.59942 | -75.49537 | 11346 ft | 302 kts | 359° |
| 2026-04-29 20:29 | 9.62128 | -75.49620 | 11100 ft | 301 kts | 359° |
| 2026-04-29 20:29 | 9.64317 | -75.49702 | 10841 ft | 299 kts | 359° |
| 2026-04-29 20:29 | 9.66519 | -75.49783 | 10600 ft | 297 kts | 359° |
| 2026-04-29 20:30 | 9.68659 | -75.49863 | 10373 ft | 296 kts | 360° |
| 2026-04-29 20:30 | 9.70830 | -75.49944 | 10113 ft | 294 kts | 0° |
| 2026-04-29 20:30 | 9.72979 | -75.50025 | 9867 ft | 293 kts | 0° |
| 2026-04-29 20:30 | 9.75108 | -75.50103 | 9738 ft | 293 kts | 0° |
| 2026-04-29 20:31 | 9.77265 | -75.50182 | 9598 ft | 292 kts | 0° |
| 2026-04-29 20:31 | 9.79391 | -75.50262 | 9448 ft | 290 kts | 360° |
| 2026-04-29 20:31 | 9.81485 | -75.50340 | 9272 ft | 289 kts | 0° |
| 2026-04-29 20:31 | 9.83587 | -75.50419 | 9041 ft | 288 kts | 0° |
| 2026-04-29 20:32 | 9.85696 | -75.50497 | 8742 ft | 286 kts | 0° |
| 2026-04-29 20:32 | 9.87748 | -75.50571 | 8419 ft | 284 kts | 0° |
| 2026-04-29 20:32 | 9.89808 | -75.50647 | 8088 ft | 282 kts | 360° |
| 2026-04-29 20:32 | 9.91185 | -75.50699 | 7857 ft | 281 kts | 360° |
| 2026-04-29 20:33 | 9.93942 | -75.50802 | 7389 ft | 280 kts | 360° |
| 2026-04-29 20:33 | 9.95960 | -75.50876 | 7033 ft | 279 kts | 359° |
| 2026-04-29 20:33 | 9.98016 | -75.50953 | 6679 ft | 277 kts | 360° |
| 2026-04-29 20:33 | 10.00001 | -75.51028 | 6344 ft | 275 kts | 359° |
| 2026-04-29 20:34 | 10.01965 | -75.51102 | 6017 ft | 273 kts | 359° |
| 2026-04-29 20:34 | 10.03882 | -75.51173 | 5700 ft | 271 kts | 360° |
| 2026-04-29 20:34 | 10.05831 | -75.51244 | 5365 ft | 269 kts | 359° |
| 2026-04-29 20:34 | 10.07758 | -75.51315 | 5025 ft | 268 kts | 359° |
| 2026-04-29 20:35 | 10.09697 | -75.51387 | 4695 ft | 266 kts | 359° |
| 2026-04-29 20:35 | 10.11614 | -75.51459 | 4368 ft | 264 kts | 359° |
| 2026-04-29 20:35 | 10.13456 | -75.51528 | 4047 ft | 263 kts | 359° |
| 2026-04-29 20:35 | 10.15274 | -75.51597 | 3728 ft | 261 kts | 359° |
| 2026-04-29 20:36 | 10.17105 | -75.51666 | 3408 ft | 260 kts | 359° |
| 2026-04-29 20:36 | 10.18919 | -75.51733 | 3153 ft | 256 kts | 359° |
| 2026-04-29 20:36 | 10.20734 | -75.51800 | 3138 ft | 258 kts | 359° |
| 2026-04-29 20:36 | 10.22602 | -75.51870 | 3107 ft | 259 kts | 359° |
| 2026-04-29 20:37 | 10.24448 | -75.51959 | 3073 ft | 259 kts | 358° |
| 2026-04-29 20:37 | 10.26339 | -75.52007 | 3031 ft | 258 kts | 1° |
| 2026-04-29 20:37 | 10.28186 | -75.51964 | 2790 ft | 257 kts | 3° |
| 2026-04-29 20:37 | 10.30037 | -75.51881 | 2453 ft | 256 kts | 3° |
| 2026-04-29 20:38 | 10.31871 | -75.51798 | 2119 ft | 254 kts | 3° |
| 2026-04-29 20:38 | 10.33712 | -75.51720 | 1780 ft | 252 kts | 2° |
| 2026-04-29 20:38 | 10.35487 | -75.51650 | 1462 ft | 233 kts | 3° |
| 2026-04-29 20:38 | 10.37068 | -75.51585 | 1212 ft | 210 kts | 3° |
| 2026-04-29 20:39 | 10.38525 | -75.51524 | 904 ft | 195 kts | 2° |
| 2026-04-29 20:39 | 10.39885 | -75.51468 | 641 ft | 182 kts | 2° |
| 2026-04-29 20:39 | 10.41132 | -75.51417 | 438 ft | 167 kts | 3° |
| 2026-04-29 20:39 | 10.42290 | -75.51369 | 202 ft | 152 kts | 2° |
| 2026-04-29 20:40 | 10.43329 | -75.51327 | 22 ft | 136 kts | 1° |
| 2026-04-29 20:40 | 10.44212 | -75.51289 | 22 ft | 111 kts | 1° |
| 2026-04-29 20:40 | 10.44585 | -75.51279 | 21 ft | 5 kts | 1° |
| 2026-04-29 20:40 | 10.44626 | -75.51286 | 21 ft | 5 kts | 332° |
| 2026-04-29 20:41 | 10.44632 | -75.51291 | 21 ft | 0 kts | 322° |
| 2026-04-29 20:41 | 10.44637 | -75.51296 | 21 ft | 1 kts | 302° |
| 2026-04-29 20:41 | 10.44642 | -75.51306 | 22 ft | 1 kts | 292° |
| 2026-04-29 20:41 | 10.44645 | -75.51320 | 22 ft | 2 kts | 277° |
| 2026-04-29 20:42 | 10.44645 | -75.51337 | 22 ft | 2 kts | 267° |
| 2026-04-29 20:42 | 10.44642 | -75.51356 | 22 ft | 2 kts | 257° |
| 2026-04-29 20:42 | 10.44637 | -75.51373 | 23 ft | 2 kts | 251° |
| 2026-04-29 20:42 | 10.44633 | -75.51393 | 23 ft | 2 kts | 269° |
| 2026-04-29 20:43 | 10.44633 | -75.51412 | 23 ft | 2 kts | 268° |
| 2026-04-29 20:43 | 10.44628 | -75.51431 | 24 ft | 2 kts | 241° |
| 2026-04-29 20:43 | 10.44613 | -75.51447 | 24 ft | 3 kts | 213° |
| 2026-04-29 20:43 | 10.44588 | -75.51455 | 24 ft | 3 kts | 186° |
| 2026-04-29 20:44 | 10.44572 | -75.51458 | 24 ft | 1 kts | 234° |
| 2026-04-29 20:44 | 10.44567 | -75.51475 | 25 ft | 2 kts | 265° |
| 2026-04-29 20:44 | 10.44568 | -75.51494 | 25 ft | 2 kts | 271° |
| 2026-04-29 20:44 | 10.44568 | -75.51512 | 25 ft | 2 kts | 271° |
| 2026-04-29 20:45 | 10.44568 | -75.51531 | 26 ft | 2 kts | 271° |
| 2026-04-29 20:45 | 10.44569 | -75.51546 | 26 ft | 0 kts | 270° |